sensor_id;sensor_type;location;lat;lon;timestamp;P1;durP1;ratioP1;P2;durP2;ratioP2
11699;SDS011;5906;51.660;6.674;2022-11-15T00:00:12;21.70;;;12.07;;
11699;SDS011;5906;51.660;6.674;2022-11-15T00:02:59;24.70;;;13.83;;
11699;SDS011;5906;51.660;6.674;2022-11-15T00:05:46;24.40;;;12.43;;
11699;SDS011;5906;51.660;6.674;2022-11-15T00:08:34;22.23;;;12.47;;
11699;SDS011;5906;51.660;6.674;2022-11-15T00:11:21;23.23;;;11.30;;
11699;SDS011;5906;51.660;6.674;2022-11-15T00:14:08;18.30;;;12.53;;
11699;SDS011;5906;51.660;6.674;2022-11-15T00:16:55;22.70;;;11.77;;
11699;SDS011;5906;51.660;6.674;2022-11-15T00:19:42;18.40;;;10.80;;
11699;SDS011;5906;51.660;6.674;2022-11-15T00:22:32;21.17;;;11.90;;
11699;SDS011;5906;51.660;6.674;2022-11-15T00:25:19;20.70;;;11.60;;
11699;SDS011;5906;51.660;6.674;2022-11-15T00:28:06;22.93;;;13.00;;
11699;SDS011;5906;51.660;6.674;2022-11-15T00:30:54;18.33;;;12.57;;
11699;SDS011;5906;51.660;6.674;2022-11-15T00:33:46;23.57;;;12.87;;
11699;SDS011;5906;51.660;6.674;2022-11-15T00:36:33;20.67;;;11.17;;
11699;SDS011;5906;51.660;6.674;2022-11-15T00:39:20;19.97;;;11.70;;
11699;SDS011;5906;51.660;6.674;2022-11-15T00:42:08;21.47;;;12.50;;
11699;SDS011;5906;51.660;6.674;2022-11-15T00:44:55;18.30;;;11.60;;
11699;SDS011;5906;51.660;6.674;2022-11-15T00:47:45;19.10;;;11.93;;
11699;SDS011;5906;51.660;6.674;2022-11-15T00:50:32;25.83;;;13.87;;
11699;SDS011;5906;51.660;6.674;2022-11-15T00:53:19;23.43;;;12.70;;
11699;SDS011;5906;51.660;6.674;2022-11-15T00:56:08;25.03;;;12.47;;
11699;SDS011;5906;51.660;6.674;2022-11-15T00:58:57;20.00;;;12.40;;
11699;SDS011;5906;51.660;6.674;2022-11-15T01:01:44;20.80;;;11.70;;
11699;SDS011;5906;51.660;6.674;2022-11-15T01:04:32;27.40;;;11.70;;
11699;SDS011;5906;51.660;6.674;2022-11-15T01:07:19;20.10;;;12.50;;
11699;SDS011;5906;51.660;6.674;2022-11-15T01:10:06;19.73;;;11.73;;
11699;SDS011;5906;51.660;6.674;2022-11-15T01:12:54;20.00;;;12.30;;
11699;SDS011;5906;51.660;6.674;2022-11-15T01:15:41;20.50;;;11.60;;
11699;SDS011;5906;51.660;6.674;2022-11-15T01:18:28;33.70;;;12.67;;
11699;SDS011;5906;51.660;6.674;2022-11-15T01:21:16;23.13;;;12.90;;
11699;SDS011;5906;51.660;6.674;2022-11-15T01:24:05;21.70;;;12.70;;
11699;SDS011;5906;51.660;6.674;2022-11-15T01:26:52;20.23;;;11.60;;
11699;SDS011;5906;51.660;6.674;2022-11-15T01:29:39;15.90;;;9.97;;
11699;SDS011;5906;51.660;6.674;2022-11-15T01:32:26;21.00;;;11.70;;
11699;SDS011;5906;51.660;6.674;2022-11-15T01:35:14;16.97;;;10.27;;
11699;SDS011;5906;51.660;6.674;2022-11-15T01:38:01;15.70;;;10.60;;
11699;SDS011;5906;51.660;6.674;2022-11-15T01:40:48;19.93;;;11.03;;
11699;SDS011;5906;51.660;6.674;2022-11-15T01:43:35;23.23;;;12.00;;
11699;SDS011;5906;51.660;6.674;2022-11-15T01:49:14;17.57;;;10.50;;
11699;SDS011;5906;51.660;6.674;2022-11-15T01:52:09;17.90;;;9.93;;
11699;SDS011;5906;51.660;6.674;2022-11-15T01:55:04;17.10;;;11.10;;
11699;SDS011;5906;51.660;6.674;2022-11-15T01:58:01;16.77;;;10.37;;
11699;SDS011;5906;51.660;6.674;2022-11-15T02:00:51;18.80;;;11.10;;
11699;SDS011;5906;51.660;6.674;2022-11-15T02:03:49;19.83;;;10.40;;
11699;SDS011;5906;51.660;6.674;2022-11-15T02:06:40;19.13;;;10.93;;
11699;SDS011;5906;51.660;6.674;2022-11-15T02:09:29;17.00;;;9.70;;
11699;SDS011;5906;51.660;6.674;2022-11-15T02:12:18;17.13;;;10.67;;
11699;SDS011;5906;51.660;6.674;2022-11-15T02:17:52;17.90;;;10.77;;
11699;SDS011;5906;51.660;6.674;2022-11-15T02:24:09;17.90;;;10.17;;
11699;SDS011;5906;51.660;6.674;2022-11-15T02:30:47;14.00;;;9.87;;
11699;SDS011;5906;51.660;6.674;2022-11-15T02:34:00;14.23;;;9.50;;
11699;SDS011;5906;51.660;6.674;2022-11-15T02:43:19;17.97;;;9.80;;
11699;SDS011;5906;51.660;6.674;2022-11-15T02:46:35;14.40;;;10.37;;
11699;SDS011;5906;51.660;6.674;2022-11-15T02:49:48;14.33;;;9.03;;
11699;SDS011;5906;51.660;6.674;2022-11-15T02:52:40;17.80;;;9.07;;
11699;SDS011;5906;51.660;6.674;2022-11-15T02:55:29;25.83;;;10.63;;
11699;SDS011;5906;51.660;6.674;2022-11-15T02:58:34;15.90;;;9.37;;
11699;SDS011;5906;51.660;6.674;2022-11-15T03:01:51;18.53;;;8.90;;
11699;SDS011;5906;51.660;6.674;2022-11-15T03:05:23;15.37;;;9.60;;
11699;SDS011;5906;51.660;6.674;2022-11-15T03:08:26;15.83;;;9.63;;
11699;SDS011;5906;51.660;6.674;2022-11-15T03:11:18;12.30;;;9.07;;
11699;SDS011;5906;51.660;6.674;2022-11-15T03:14:13;13.27;;;9.40;;
11699;SDS011;5906;51.660;6.674;2022-11-15T03:20:05;12.50;;;8.90;;
11699;SDS011;5906;51.660;6.674;2022-11-15T03:22:55;16.70;;;9.07;;
11699;SDS011;5906;51.660;6.674;2022-11-15T03:25:48;16.13;;;9.10;;
11699;SDS011;5906;51.660;6.674;2022-11-15T03:28:38;13.87;;;9.17;;
11699;SDS011;5906;51.660;6.674;2022-11-15T03:31:29;17.37;;;9.73;;
11699;SDS011;5906;51.660;6.674;2022-11-15T03:37:47;17.47;;;8.33;;
11699;SDS011;5906;51.660;6.674;2022-11-15T03:41:05;17.43;;;9.70;;
11699;SDS011;5906;51.660;6.674;2022-11-15T03:44:00;11.43;;;8.60;;
11699;SDS011;5906;51.660;6.674;2022-11-15T03:47:17;14.53;;;9.50;;
11699;SDS011;5906;51.660;6.674;2022-11-15T03:50:17;13.67;;;9.00;;
11699;SDS011;5906;51.660;6.674;2022-11-15T03:53:06;15.73;;;9.23;;
11699;SDS011;5906;51.660;6.674;2022-11-15T03:55:53;14.50;;;9.67;;
11699;SDS011;5906;51.660;6.674;2022-11-15T03:58:40;16.63;;;9.90;;
11699;SDS011;5906;51.660;6.674;2022-11-15T04:01:27;16.47;;;9.47;;
11699;SDS011;5906;51.660;6.674;2022-11-15T04:04:14;18.10;;;9.80;;
11699;SDS011;5906;51.660;6.674;2022-11-15T04:07:01;22.70;;;10.17;;
11699;SDS011;5906;51.660;6.674;2022-11-15T04:09:48;16.27;;;9.03;;
11699;SDS011;5906;51.660;6.674;2022-11-15T04:12:50;18.80;;;10.03;;
11699;SDS011;5906;51.660;6.674;2022-11-15T04:15:38;16.07;;;10.03;;
11699;SDS011;5906;51.660;6.674;2022-11-15T04:18:25;15.20;;;9.70;;
11699;SDS011;5906;51.660;6.674;2022-11-15T04:21:12;16.67;;;9.83;;
11699;SDS011;5906;51.660;6.674;2022-11-15T04:24:18;32.73;;;10.87;;
11699;SDS011;5906;51.660;6.674;2022-11-15T04:27:05;20.70;;;10.70;;
11699;SDS011;5906;51.660;6.674;2022-11-15T04:29:52;18.47;;;10.03;;
11699;SDS011;5906;51.660;6.674;2022-11-15T04:32:39;23.00;;;10.83;;
11699;SDS011;5906;51.660;6.674;2022-11-15T04:35:26;17.13;;;10.37;;
11699;SDS011;5906;51.660;6.674;2022-11-15T04:38:13;17.50;;;10.47;;
11699;SDS011;5906;51.660;6.674;2022-11-15T04:41:01;20.17;;;11.43;;
11699;SDS011;5906;51.660;6.674;2022-11-15T04:43:48;18.10;;;12.20;;
11699;SDS011;5906;51.660;6.674;2022-11-15T04:46:35;14.70;;;10.23;;
11699;SDS011;5906;51.660;6.674;2022-11-15T04:49:22;17.93;;;11.47;;
11699;SDS011;5906;51.660;6.674;2022-11-15T04:52:09;16.40;;;10.93;;
11699;SDS011;5906;51.660;6.674;2022-11-15T04:54:56;17.73;;;10.90;;
11699;SDS011;5906;51.660;6.674;2022-11-15T04:57:43;19.90;;;11.00;;
11699;SDS011;5906;51.660;6.674;2022-11-15T05:00:30;16.73;;;11.37;;
11699;SDS011;5906;51.660;6.674;2022-11-15T05:03:17;22.30;;;10.70;;
11699;SDS011;5906;51.660;6.674;2022-11-15T05:06:23;20.90;;;11.07;;
11699;SDS011;5906;51.660;6.674;2022-11-15T05:09:10;19.57;;;13.03;;
11699;SDS011;5906;51.660;6.674;2022-11-15T05:11:57;15.90;;;10.17;;
11699;SDS011;5906;51.660;6.674;2022-11-15T05:14:44;16.60;;;11.27;;
11699;SDS011;5906;51.660;6.674;2022-11-15T05:17:31;17.10;;;11.70;;
11699;SDS011;5906;51.660;6.674;2022-11-15T05:20:18;16.77;;;11.00;;
11699;SDS011;5906;51.660;6.674;2022-11-15T05:23:05;18.70;;;10.30;;
11699;SDS011;5906;51.660;6.674;2022-11-15T05:25:52;21.40;;;11.83;;
11699;SDS011;5906;51.660;6.674;2022-11-15T05:28:39;17.50;;;12.17;;
11699;SDS011;5906;51.660;6.674;2022-11-15T05:31:26;19.70;;;11.73;;
11699;SDS011;5906;51.660;6.674;2022-11-15T05:34:14;16.33;;;11.30;;
11699;SDS011;5906;51.660;6.674;2022-11-15T05:37:01;19.70;;;11.97;;
11699;SDS011;5906;51.660;6.674;2022-11-15T05:39:49;18.30;;;12.77;;
11699;SDS011;5906;51.660;6.674;2022-11-15T05:42:36;19.87;;;12.20;;
11699;SDS011;5906;51.660;6.674;2022-11-15T05:45:24;19.83;;;12.53;;
11699;SDS011;5906;51.660;6.674;2022-11-15T05:48:12;14.93;;;11.27;;
11699;SDS011;5906;51.660;6.674;2022-11-15T05:51:00;21.57;;;12.70;;
11699;SDS011;5906;51.660;6.674;2022-11-15T05:53:49;20.83;;;12.43;;
11699;SDS011;5906;51.660;6.674;2022-11-15T05:56:37;17.90;;;11.00;;
11699;SDS011;5906;51.660;6.674;2022-11-15T05:59:25;15.10;;;10.50;;
11699;SDS011;5906;51.660;6.674;2022-11-15T06:02:15;14.43;;;10.40;;
11699;SDS011;5906;51.660;6.674;2022-11-15T06:05:02;17.50;;;10.93;;
11699;SDS011;5906;51.660;6.674;2022-11-15T06:07:49;17.33;;;11.20;;
11699;SDS011;5906;51.660;6.674;2022-11-15T06:10:36;15.13;;;10.40;;
11699;SDS011;5906;51.660;6.674;2022-11-15T06:13:23;18.10;;;11.03;;
11699;SDS011;5906;51.660;6.674;2022-11-15T06:16:10;16.80;;;9.97;;
11699;SDS011;5906;51.660;6.674;2022-11-15T06:18:57;17.90;;;10.40;;
11699;SDS011;5906;51.660;6.674;2022-11-15T06:21:44;15.03;;;10.77;;
11699;SDS011;5906;51.660;6.674;2022-11-15T06:24:32;18.43;;;10.10;;
11699;SDS011;5906;51.660;6.674;2022-11-15T06:27:19;17.80;;;10.60;;
11699;SDS011;5906;51.660;6.674;2022-11-15T06:30:06;14.63;;;10.53;;
11699;SDS011;5906;51.660;6.674;2022-11-15T06:33:03;17.27;;;9.93;;
11699;SDS011;5906;51.660;6.674;2022-11-15T06:35:51;18.33;;;10.17;;
11699;SDS011;5906;51.660;6.674;2022-11-15T06:38:39;16.53;;;10.10;;
11699;SDS011;5906;51.660;6.674;2022-11-15T06:41:26;15.33;;;10.03;;
11699;SDS011;5906;51.660;6.674;2022-11-15T06:44:13;18.10;;;11.50;;
11699;SDS011;5906;51.660;6.674;2022-11-15T06:47:00;15.20;;;9.60;;
11699;SDS011;5906;51.660;6.674;2022-11-15T06:49:47;21.47;;;9.70;;
11699;SDS011;5906;51.660;6.674;2022-11-15T06:52:34;17.63;;;10.20;;
11699;SDS011;5906;51.660;6.674;2022-11-15T06:55:21;19.00;;;10.87;;
11699;SDS011;5906;51.660;6.674;2022-11-15T06:58:08;18.33;;;10.67;;
11699;SDS011;5906;51.660;6.674;2022-11-15T07:01:14;20.70;;;11.90;;
11699;SDS011;5906;51.660;6.674;2022-11-15T07:04:01;18.17;;;10.80;;
11699;SDS011;5906;51.660;6.674;2022-11-15T07:06:48;15.97;;;10.17;;
11699;SDS011;5906;51.660;6.674;2022-11-15T07:09:35;15.13;;;9.93;;
11699;SDS011;5906;51.660;6.674;2022-11-15T07:12:22;13.73;;;9.20;;
11699;SDS011;5906;51.660;6.674;2022-11-15T07:15:09;17.30;;;9.67;;
11699;SDS011;5906;51.660;6.674;2022-11-15T07:17:59;12.37;;;8.97;;
11699;SDS011;5906;51.660;6.674;2022-11-15T07:20:47;16.30;;;9.60;;
11699;SDS011;5906;51.660;6.674;2022-11-15T07:23:37;12.17;;;8.57;;
11699;SDS011;5906;51.660;6.674;2022-11-15T07:26:25;12.73;;;8.60;;
11699;SDS011;5906;51.660;6.674;2022-11-15T07:29:12;19.50;;;9.67;;
11699;SDS011;5906;51.660;6.674;2022-11-15T07:31:59;9.97;;;7.87;;
11699;SDS011;5906;51.660;6.674;2022-11-15T07:34:46;11.50;;;8.17;;
11699;SDS011;5906;51.660;6.674;2022-11-15T07:37:33;13.33;;;8.20;;
11699;SDS011;5906;51.660;6.674;2022-11-15T07:40:20;13.50;;;8.20;;
11699;SDS011;5906;51.660;6.674;2022-11-15T07:43:07;13.77;;;8.17;;
11699;SDS011;5906;51.660;6.674;2022-11-15T07:45:55;14.67;;;7.90;;
11699;SDS011;5906;51.660;6.674;2022-11-15T07:48:45;12.07;;;6.87;;
11699;SDS011;5906;51.660;6.674;2022-11-15T07:51:32;9.20;;;6.60;;
11699;SDS011;5906;51.660;6.674;2022-11-15T07:54:19;10.30;;;7.33;;
11699;SDS011;5906;51.660;6.674;2022-11-15T07:57:06;11.03;;;6.97;;
11699;SDS011;5906;51.660;6.674;2022-11-15T07:59:55;8.37;;;6.00;;
11699;SDS011;5906;51.660;6.674;2022-11-15T08:02:42;20.73;;;5.87;;
11699;SDS011;5906;51.660;6.674;2022-11-15T08:05:30;8.67;;;5.20;;
11699;SDS011;5906;51.660;6.674;2022-11-15T08:08:17;6.07;;;4.53;;
11699;SDS011;5906;51.660;6.674;2022-11-15T08:11:04;8.97;;;4.20;;
11699;SDS011;5906;51.660;6.674;2022-11-15T08:13:51;9.00;;;5.10;;
11699;SDS011;5906;51.660;6.674;2022-11-15T08:16:38;7.63;;;4.70;;
11699;SDS011;5906;51.660;6.674;2022-11-15T08:19:25;8.80;;;4.27;;
11699;SDS011;5906;51.660;6.674;2022-11-15T08:22:12;6.60;;;4.37;;
11699;SDS011;5906;51.660;6.674;2022-11-15T08:24:59;6.30;;;4.37;;
11699;SDS011;5906;51.660;6.674;2022-11-15T08:27:46;7.20;;;4.70;;
11699;SDS011;5906;51.660;6.674;2022-11-15T08:30:34;4.60;;;3.27;;
11699;SDS011;5906;51.660;6.674;2022-11-15T08:33:23;5.73;;;3.97;;
11699;SDS011;5906;51.660;6.674;2022-11-15T08:36:14;4.70;;;3.70;;
11699;SDS011;5906;51.660;6.674;2022-11-15T08:39:03;4.13;;;2.80;;
11699;SDS011;5906;51.660;6.674;2022-11-15T08:41:49;3.80;;;3.40;;
11699;SDS011;5906;51.660;6.674;2022-11-15T08:44:36;11.00;;;5.23;;
11699;SDS011;5906;51.660;6.674;2022-11-15T08:47:23;6.20;;;3.30;;
11699;SDS011;5906;51.660;6.674;2022-11-15T08:50:11;5.10;;;3.73;;
11699;SDS011;5906;51.660;6.674;2022-11-15T08:53:03;5.53;;;3.70;;
11699;SDS011;5906;51.660;6.674;2022-11-15T08:55:54;3.60;;;2.77;;
11699;SDS011;5906;51.660;6.674;2022-11-15T08:58:41;3.13;;;2.83;;
11699;SDS011;5906;51.660;6.674;2022-11-15T09:01:29;8.13;;;3.43;;
11699;SDS011;5906;51.660;6.674;2022-11-15T09:04:16;4.30;;;3.20;;
11699;SDS011;5906;51.660;6.674;2022-11-15T09:07:03;3.47;;;3.17;;
11699;SDS011;5906;51.660;6.674;2022-11-15T09:09:50;5.87;;;3.00;;
11699;SDS011;5906;51.660;6.674;2022-11-15T09:12:37;5.60;;;3.00;;
11699;SDS011;5906;51.660;6.674;2022-11-15T09:15:24;4.40;;;2.70;;
11699;SDS011;5906;51.660;6.674;2022-11-15T09:18:09;3.50;;;2.47;;
11699;SDS011;5906;51.660;6.674;2022-11-15T09:20:36;4.63;;;2.50;;
11699;SDS011;5906;51.660;6.674;2022-11-15T09:23:03;4.63;;;2.53;;
11699;SDS011;5906;51.660;6.674;2022-11-15T09:25:31;7.13;;;2.67;;
11699;SDS011;5906;51.660;6.674;2022-11-15T09:27:57;3.20;;;2.50;;
11699;SDS011;5906;51.660;6.674;2022-11-15T09:30:25;2.97;;;2.70;;
11699;SDS011;5906;51.660;6.674;2022-11-15T09:32:52;2.73;;;2.47;;
11699;SDS011;5906;51.660;6.674;2022-11-15T09:35:19;3.10;;;2.80;;
11699;SDS011;5906;51.660;6.674;2022-11-15T09:37:46;3.20;;;2.60;;
11699;SDS011;5906;51.660;6.674;2022-11-15T09:40:18;8.80;;;3.00;;
11699;SDS011;5906;51.660;6.674;2022-11-15T09:45:31;4.77;;;2.97;;
11699;SDS011;5906;51.660;6.674;2022-11-15T09:51:14;4.27;;;2.93;;
11699;SDS011;5906;51.660;6.674;2022-11-15T09:56:49;5.93;;;3.23;;
11699;SDS011;5906;51.660;6.674;2022-11-15T10:04:50;6.63;;;3.93;;
11699;SDS011;5906;51.660;6.674;2022-11-15T10:07:27;4.97;;;3.80;;
11699;SDS011;5906;51.660;6.674;2022-11-15T10:12:30;5.10;;;3.87;;
11699;SDS011;5906;51.660;6.674;2022-11-15T10:15:09;6.00;;;4.87;;
11699;SDS011;5906;51.660;6.674;2022-11-15T10:18:03;4.53;;;3.10;;
11699;SDS011;5906;51.660;6.674;2022-11-15T10:20:53;4.17;;;3.20;;
11699;SDS011;5906;51.660;6.674;2022-11-15T10:23:26;6.87;;;3.13;;
11699;SDS011;5906;51.660;6.674;2022-11-15T10:25:54;8.40;;;3.47;;
11699;SDS011;5906;51.660;6.674;2022-11-15T10:28:31;6.70;;;2.93;;
11699;SDS011;5906;51.660;6.674;2022-11-15T10:30:59;6.17;;;3.77;;
11699;SDS011;5906;51.660;6.674;2022-11-15T10:33:36;4.03;;;2.93;;
11699;SDS011;5906;51.660;6.674;2022-11-15T10:38:51;5.53;;;3.07;;
11699;SDS011;5906;51.660;6.674;2022-11-15T10:41:20;4.70;;;2.60;;
11699;SDS011;5906;51.660;6.674;2022-11-15T10:46:40;4.77;;;3.33;;
11699;SDS011;5906;51.660;6.674;2022-11-15T10:49:17;6.63;;;4.10;;
11699;SDS011;5906;51.660;6.674;2022-11-15T10:54:23;7.70;;;3.50;;
11699;SDS011;5906;51.660;6.674;2022-11-15T10:57:21;6.20;;;3.97;;
11699;SDS011;5906;51.660;6.674;2022-11-15T10:59:51;4.30;;;3.60;;
11699;SDS011;5906;51.660;6.674;2022-11-15T11:02:36;4.80;;;3.37;;
11699;SDS011;5906;51.660;6.674;2022-11-15T11:05:07;5.90;;;3.60;;
11699;SDS011;5906;51.660;6.674;2022-11-15T11:10:37;5.40;;;3.70;;
11699;SDS011;5906;51.660;6.674;2022-11-15T11:13:36;6.10;;;3.37;;
11699;SDS011;5906;51.660;6.674;2022-11-15T11:35:32;2.87;;;2.67;;
11699;SDS011;5906;51.660;6.674;2022-11-15T11:40:49;5.80;;;2.87;;
11699;SDS011;5906;51.660;6.674;2022-11-15T11:49:09;7.40;;;3.87;;
11699;SDS011;5906;51.660;6.674;2022-11-15T11:51:40;6.30;;;4.03;;
11699;SDS011;5906;51.660;6.674;2022-11-15T11:54:32;9.77;;;5.90;;
11699;SDS011;5906;51.660;6.674;2022-11-15T11:57:03;7.87;;;4.37;;
11699;SDS011;5906;51.660;6.674;2022-11-15T11:59:42;4.10;;;2.97;;
11699;SDS011;5906;51.660;6.674;2022-11-15T12:04:49;13.50;;;4.17;;
11699;SDS011;5906;51.660;6.674;2022-11-15T12:07:23;4.80;;;3.03;;
11699;SDS011;5906;51.660;6.674;2022-11-15T12:15:45;7.70;;;3.60;;
11699;SDS011;5906;51.660;6.674;2022-11-15T12:18:24;5.67;;;2.70;;
11699;SDS011;5906;51.660;6.674;2022-11-15T12:20:59;5.87;;;3.40;;
11699;SDS011;5906;51.660;6.674;2022-11-15T12:23:31;5.10;;;2.63;;
11699;SDS011;5906;51.660;6.674;2022-11-15T12:26:05;4.13;;;2.93;;
11699;SDS011;5906;51.660;6.674;2022-11-15T12:28:47;8.30;;;2.70;;
11699;SDS011;5906;51.660;6.674;2022-11-15T12:34:12;3.53;;;2.20;;
11699;SDS011;5906;51.660;6.674;2022-11-15T12:36:46;5.23;;;2.80;;
11699;SDS011;5906;51.660;6.674;2022-11-15T12:39:14;3.47;;;2.43;;
11699;SDS011;5906;51.660;6.674;2022-11-15T12:44:11;4.57;;;2.53;;
11699;SDS011;5906;51.660;6.674;2022-11-15T12:47:01;5.90;;;2.80;;
11699;SDS011;5906;51.660;6.674;2022-11-15T12:59:48;5.30;;;2.00;;
11699;SDS011;5906;51.660;6.674;2022-11-15T13:02:40;7.23;;;2.77;;
11699;SDS011;5906;51.660;6.674;2022-11-15T13:12:57;5.87;;;2.00;;
11699;SDS011;5906;51.660;6.674;2022-11-15T13:15:35;5.40;;;2.37;;
11699;SDS011;5906;51.660;6.674;2022-11-15T13:20:49;1.83;;;1.70;;
11699;SDS011;5906;51.660;6.674;2022-11-15T13:23:16;4.87;;;1.70;;
11699;SDS011;5906;51.660;6.674;2022-11-15T13:28:24;2.27;;;2.00;;
11699;SDS011;5906;51.660;6.674;2022-11-15T13:34:12;4.10;;;1.70;;
11699;SDS011;5906;51.660;6.674;2022-11-15T13:37:12;3.70;;;1.80;;
11699;SDS011;5906;51.660;6.674;2022-11-15T13:39:45;2.23;;;1.70;;
11699;SDS011;5906;51.660;6.674;2022-11-15T13:42:16;2.90;;;1.70;;
11699;SDS011;5906;51.660;6.674;2022-11-15T13:44:54;4.80;;;1.87;;
11699;SDS011;5906;51.660;6.674;2022-11-15T13:47:22;4.40;;;1.90;;
11699;SDS011;5906;51.660;6.674;2022-11-15T13:49:53;3.77;;;2.03;;
11699;SDS011;5906;51.660;6.674;2022-11-15T13:52:22;3.40;;;1.63;;
11699;SDS011;5906;51.660;6.674;2022-11-15T13:57:29;5.70;;;2.20;;
11699;SDS011;5906;51.660;6.674;2022-11-15T14:03:13;4.10;;;1.67;;
11699;SDS011;5906;51.660;6.674;2022-11-15T14:06:06;3.00;;;1.77;;
11699;SDS011;5906;51.660;6.674;2022-11-15T14:08:39;3.83;;;1.60;;
11699;SDS011;5906;51.660;6.674;2022-11-15T14:11:25;4.40;;;1.90;;
11699;SDS011;5906;51.660;6.674;2022-11-15T14:16:54;2.57;;;1.60;;
11699;SDS011;5906;51.660;6.674;2022-11-15T14:27:39;3.10;;;1.77;;
11699;SDS011;5906;51.660;6.674;2022-11-15T14:30:16;3.67;;;1.70;;
11699;SDS011;5906;51.660;6.674;2022-11-15T14:32:45;2.93;;;1.53;;
11699;SDS011;5906;51.660;6.674;2022-11-15T14:35:18;3.43;;;1.70;;
11699;SDS011;5906;51.660;6.674;2022-11-15T14:37:47;2.80;;;1.70;;
11699;SDS011;5906;51.660;6.674;2022-11-15T14:40:14;4.03;;;1.93;;
11699;SDS011;5906;51.660;6.674;2022-11-15T14:42:44;5.70;;;1.90;;
11699;SDS011;5906;51.660;6.674;2022-11-15T14:45:13;3.27;;;1.83;;
11699;SDS011;5906;51.660;6.674;2022-11-15T14:47:42;3.60;;;1.70;;
11699;SDS011;5906;51.660;6.674;2022-11-15T14:50:16;1.50;;;1.40;;
11699;SDS011;5906;51.660;6.674;2022-11-15T14:52:45;9.60;;;1.80;;
11699;SDS011;5906;51.660;6.674;2022-11-15T14:58:03;3.30;;;2.50;;
11699;SDS011;5906;51.660;6.674;2022-11-15T15:00:31;3.40;;;1.93;;
11699;SDS011;5906;51.660;6.674;2022-11-15T15:03:01;4.30;;;2.30;;
11699;SDS011;5906;51.660;6.674;2022-11-15T15:05:32;3.67;;;1.70;;
11699;SDS011;5906;51.660;6.674;2022-11-15T15:08:04;6.10;;;1.97;;
11699;SDS011;5906;51.660;6.674;2022-11-15T15:10:33;4.03;;;2.10;;
11699;SDS011;5906;51.660;6.674;2022-11-15T15:13:08;7.17;;;1.80;;
11699;SDS011;5906;51.660;6.674;2022-11-15T15:15:49;2.57;;;1.43;;
11699;SDS011;5906;51.660;6.674;2022-11-15T15:18:17;4.40;;;1.90;;
11699;SDS011;5906;51.660;6.674;2022-11-15T15:20:47;8.93;;;1.90;;
11699;SDS011;5906;51.660;6.674;2022-11-15T15:23:21;4.80;;;1.90;;
11699;SDS011;5906;51.660;6.674;2022-11-15T15:25:50;7.60;;;4.53;;
11699;SDS011;5906;51.660;6.674;2022-11-15T15:28:18;8.90;;;2.67;;
11699;SDS011;5906;51.660;6.674;2022-11-15T15:30:45;1.97;;;1.80;;
11699;SDS011;5906;51.660;6.674;2022-11-15T15:33:12;6.50;;;1.90;;
11699;SDS011;5906;51.660;6.674;2022-11-15T15:35:39;2.83;;;1.93;;
11699;SDS011;5906;51.660;6.674;2022-11-15T15:38:06;3.57;;;2.20;;
11699;SDS011;5906;51.660;6.674;2022-11-15T15:40:35;3.57;;;2.00;;
11699;SDS011;5906;51.660;6.674;2022-11-15T15:43:01;3.80;;;2.40;;
11699;SDS011;5906;51.660;6.674;2022-11-15T15:45:28;7.87;;;2.33;;
11699;SDS011;5906;51.660;6.674;2022-11-15T15:47:55;3.93;;;2.13;;
11699;SDS011;5906;51.660;6.674;2022-11-15T15:52:55;5.73;;;2.70;;
11699;SDS011;5906;51.660;6.674;2022-11-15T15:55:24;2.63;;;2.33;;
11699;SDS011;5906;51.660;6.674;2022-11-15T15:57:52;6.10;;;2.37;;
11699;SDS011;5906;51.660;6.674;2022-11-15T16:00:19;4.20;;;2.20;;
11699;SDS011;5906;51.660;6.674;2022-11-15T16:02:49;3.47;;;2.23;;
11699;SDS011;5906;51.660;6.674;2022-11-15T16:05:15;7.40;;;2.20;;
11699;SDS011;5906;51.660;6.674;2022-11-15T16:07:43;3.10;;;2.27;;
11699;SDS011;5906;51.660;6.674;2022-11-15T16:12:50;7.10;;;2.77;;
11699;SDS011;5906;51.660;6.674;2022-11-15T16:15:18;7.13;;;3.13;;
11699;SDS011;5906;51.660;6.674;2022-11-15T16:17:47;4.40;;;2.50;;
11699;SDS011;5906;51.660;6.674;2022-11-15T16:22:52;5.03;;;3.00;;
11699;SDS011;5906;51.660;6.674;2022-11-15T16:25:19;2.97;;;2.40;;
11699;SDS011;5906;51.660;6.674;2022-11-15T16:27:46;3.20;;;2.90;;
11699;SDS011;5906;51.660;6.674;2022-11-15T16:30:17;4.10;;;2.63;;
11699;SDS011;5906;51.660;6.674;2022-11-15T16:32:47;3.10;;;2.80;;
11699;SDS011;5906;51.660;6.674;2022-11-15T16:35:14;3.43;;;2.90;;
11699;SDS011;5906;51.660;6.674;2022-11-15T16:37:42;4.27;;;2.37;;
11699;SDS011;5906;51.660;6.674;2022-11-15T16:40:28;3.27;;;2.77;;
11699;SDS011;5906;51.660;6.674;2022-11-15T16:42:59;7.60;;;3.30;;
11699;SDS011;5906;51.660;6.674;2022-11-15T16:45:28;7.77;;;3.07;;
11699;SDS011;5906;51.660;6.674;2022-11-15T16:47:56;9.93;;;3.40;;
11699;SDS011;5906;51.660;6.674;2022-11-15T16:50:24;4.90;;;3.03;;
11699;SDS011;5906;51.660;6.674;2022-11-15T16:52:54;3.97;;;2.70;;
11699;SDS011;5906;51.660;6.674;2022-11-15T16:55:23;6.87;;;3.07;;
11699;SDS011;5906;51.660;6.674;2022-11-15T16:57:53;3.27;;;2.70;;
11699;SDS011;5906;51.660;6.674;2022-11-15T17:00:23;3.90;;;2.80;;
11699;SDS011;5906;51.660;6.674;2022-11-15T17:02:51;3.50;;;2.73;;
11699;SDS011;5906;51.660;6.674;2022-11-15T17:05:19;3.70;;;2.77;;
11699;SDS011;5906;51.660;6.674;2022-11-15T17:07:48;5.63;;;3.03;;
11699;SDS011;5906;51.660;6.674;2022-11-15T17:10:17;8.33;;;3.30;;
11699;SDS011;5906;51.660;6.674;2022-11-15T17:12:44;4.40;;;3.10;;
11699;SDS011;5906;51.660;6.674;2022-11-15T17:15:11;3.23;;;2.77;;
11699;SDS011;5906;51.660;6.674;2022-11-15T17:17:39;5.30;;;2.97;;
11699;SDS011;5906;51.660;6.674;2022-11-15T17:20:10;6.10;;;2.97;;
11699;SDS011;5906;51.660;6.674;2022-11-15T17:22:42;2.90;;;2.60;;
11699;SDS011;5906;51.660;6.674;2022-11-15T17:25:09;4.33;;;2.70;;
11699;SDS011;5906;51.660;6.674;2022-11-15T17:27:36;4.60;;;2.90;;
11699;SDS011;5906;51.660;6.674;2022-11-15T17:30:03;3.07;;;2.50;;
11699;SDS011;5906;51.660;6.674;2022-11-15T17:32:34;4.57;;;2.90;;
11699;SDS011;5906;51.660;6.674;2022-11-15T17:35:02;3.63;;;2.60;;
11699;SDS011;5906;51.660;6.674;2022-11-15T17:37:40;3.90;;;2.70;;
11699;SDS011;5906;51.660;6.674;2022-11-15T17:40:07;3.83;;;2.77;;
11699;SDS011;5906;51.660;6.674;2022-11-15T17:42:34;4.07;;;3.40;;
11699;SDS011;5906;51.660;6.674;2022-11-15T17:45:01;3.80;;;2.93;;
11699;SDS011;5906;51.660;6.674;2022-11-15T17:47:34;3.00;;;2.70;;
11699;SDS011;5906;51.660;6.674;2022-11-15T17:50:01;5.10;;;3.53;;
11699;SDS011;5906;51.660;6.674;2022-11-15T17:52:28;6.17;;;2.90;;
11699;SDS011;5906;51.660;6.674;2022-11-15T17:54:55;3.70;;;2.50;;
11699;SDS011;5906;51.660;6.674;2022-11-15T17:57:21;3.60;;;3.23;;
11699;SDS011;5906;51.660;6.674;2022-11-15T17:59:48;4.63;;;2.97;;
11699;SDS011;5906;51.660;6.674;2022-11-15T18:02:15;3.70;;;2.97;;
11699;SDS011;5906;51.660;6.674;2022-11-15T18:04:42;3.63;;;2.80;;
11699;SDS011;5906;51.660;6.674;2022-11-15T18:07:09;4.60;;;2.83;;
11699;SDS011;5906;51.660;6.674;2022-11-15T18:09:37;3.27;;;2.97;;
11699;SDS011;5906;51.660;6.674;2022-11-15T18:12:07;3.83;;;2.63;;
11699;SDS011;5906;51.660;6.674;2022-11-15T18:14:34;3.50;;;2.80;;
11699;SDS011;5906;51.660;6.674;2022-11-15T18:17:01;2.80;;;2.47;;
11699;SDS011;5906;51.660;6.674;2022-11-15T18:19:28;3.10;;;2.80;;
11699;SDS011;5906;51.660;6.674;2022-11-15T18:21:54;3.37;;;3.03;;
11699;SDS011;5906;51.660;6.674;2022-11-15T18:24:22;4.63;;;3.00;;
11699;SDS011;5906;51.660;6.674;2022-11-15T18:26:54;3.80;;;2.87;;
11699;SDS011;5906;51.660;6.674;2022-11-15T18:29:21;3.30;;;2.70;;
11699;SDS011;5906;51.660;6.674;2022-11-15T18:31:49;3.67;;;3.10;;
11699;SDS011;5906;51.660;6.674;2022-11-15T18:34:21;3.43;;;2.97;;
11699;SDS011;5906;51.660;6.674;2022-11-15T18:36:50;3.67;;;2.50;;
11699;SDS011;5906;51.660;6.674;2022-11-15T18:39:17;4.80;;;3.20;;
11699;SDS011;5906;51.660;6.674;2022-11-15T18:41:45;3.20;;;2.87;;